sensor_id;sensor_type;location;lat;lon;timestamp;pressure;altitude;pressure_sealevel;temperature;humidity
59767;BME280;46248;58.364;25.582;2024-01-30T00:03:06;101918.47;;;1.41;100.00
59767;BME280;46248;58.364;25.582;2024-01-30T00:06:30;101948.63;;;1.43;100.00
59767;BME280;46248;58.364;25.582;2024-01-30T00:09:53;101951.19;;;1.42;100.00
59767;BME280;46248;58.364;25.582;2024-01-30T00:13:17;101951.16;;;1.38;100.00
59767;BME280;46248;58.364;25.582;2024-01-30T00:16:40;101939.97;;;1.38;100.00
59767;BME280;46248;58.364;25.582;2024-01-30T00:20:04;101933.94;;;1.39;100.00
59767;BME280;46248;58.364;25.582;2024-01-30T00:23:29;101931.38;;;1.41;100.00
59767;BME280;46248;58.364;25.582;2024-01-30T00:26:52;101944.25;;;1.39;100.00
59767;BME280;46248;58.364;25.582;2024-01-30T00:30:15;101945.13;;;1.38;100.00
59767;BME280;46248;58.364;25.582;2024-01-30T00:33:38;101928.75;;;1.36;100.00
59767;BME280;46248;58.364;25.582;2024-01-30T00:37:01;101944.22;;;1.33;100.00
59767;BME280;46248;58.364;25.582;2024-01-30T00:40:26;101948.50;;;1.32;100.00
59767;BME280;46248;58.364;25.582;2024-01-30T00:43:49;101943.34;;;1.31;100.00
59767;BME280;46248;58.364;25.582;2024-01-30T00:47:12;101961.41;;;1.31;100.00
59767;BME280;46248;58.364;25.582;2024-01-30T00:50:35;101946.72;;;1.25;100.00
59767;BME280;46248;58.364;25.582;2024-01-30T00:53:58;101949.34;;;1.28;100.00
59767;BME280;46248;58.364;25.582;2024-01-30T00:57:22;101947.63;;;1.27;100.00
59767;BME280;46248;58.364;25.582;2024-01-30T01:00:45;101967.38;;;1.27;100.00
59767;BME280;46248;58.364;25.582;2024-01-30T01:04:08;101962.16;;;1.21;100.00
59767;BME280;46248;58.364;25.582;2024-01-30T01:07:32;101951.84;;;1.22;100.00
59767;BME280;46248;58.364;25.582;2024-01-30T01:10:55;101951.84;;;1.22;100.00
59767;BME280;46248;58.364;25.582;2024-01-30T01:14:19;101937.25;;;1.21;100.00
59767;BME280;46248;58.364;25.582;2024-01-30T01:17:42;101939.72;;;1.13;100.00
59767;BME280;46248;58.364;25.582;2024-01-30T01:21:05;101968.13;;;1.17;100.00
59767;BME280;46248;58.364;25.582;2024-01-30T01:24:29;101967.31;;;1.21;100.00
59767;BME280;46248;58.364;25.582;2024-01-30T01:27:51;101960.44;;;1.18;100.00
59767;BME280;46248;58.364;25.582;2024-01-30T01:31:16;101952.72;;;1.21;100.00
59767;BME280;46248;58.364;25.582;2024-01-30T01:34:39;101957.84;;;1.18;100.00
59767;BME280;46248;58.364;25.582;2024-01-30T01:38:02;101956.97;;;1.18;100.00
59767;BME280;46248;58.364;25.582;2024-01-30T01:41:29;101957.84;;;1.18;100.00
59767;BME280;46248;58.364;25.582;2024-01-30T01:44:52;101971.56;;;1.17;100.00
59767;BME280;46248;58.364;25.582;2024-01-30T01:48:18;101965.50;;;1.10;100.00
59767;BME280;46248;58.364;25.582;2024-01-30T01:51:41;101961.22;;;1.14;100.00
59767;BME280;46248;58.364;25.582;2024-01-30T01:55:07;101948.25;;;1.06;100.00
59767;BME280;46248;58.364;25.582;2024-01-30T01:58:30;101947.50;;;1.15;100.00
59767;BME280;46248;58.364;25.582;2024-01-30T02:01:54;101937.94;;;1.08;100.00
59767;BME280;46248;58.364;25.582;2024-01-30T02:05:19;101951.78;;;1.16;100.00
59767;BME280;46248;58.364;25.582;2024-01-30T02:08:43;101950.94;;;1.16;100.00
59767;BME280;46248;58.364;25.582;2024-01-30T02:12:06;101943.13;;;1.09;100.00
59767;BME280;46248;58.364;25.582;2024-01-30T02:15:29;101962.97;;;1.15;100.00
59767;BME280;46248;58.364;25.582;2024-01-30T02:18:52;101961.22;;;1.14;100.00
59767;BME280;46248;58.364;25.582;2024-01-30T02:22:17;101948.28;;;1.11;100.00
59767;BME280;46248;58.364;25.582;2024-01-30T02:25:41;101945.66;;;1.05;100.00
59767;BME280;46248;58.364;25.582;2024-01-30T02:29:05;101951.72;;;1.10;100.00
59767;BME280;46248;58.364;25.582;2024-01-30T02:32:29;101932.78;;;1.06;100.00
59767;BME280;46248;58.364;25.582;2024-01-30T02:35:51;101941.38;;;1.07;100.00
59767;BME280;46248;58.364;25.582;2024-01-30T02:39:16;101958.56;;;1.08;100.00
59767;BME280;46248;58.364;25.582;2024-01-30T02:42:39;101963.78;;;1.09;100.00
59767;BME280;46248;58.364;25.582;2024-01-30T02:46:02;101952.59;;;1.10;100.00
59767;BME280;46248;58.364;25.582;2024-01-30T02:49:25;101954.31;;;1.10;100.00
59767;BME280;46248;58.364;25.582;2024-01-30T02:52:49;101968.94;;;1.11;100.00
59767;BME280;46248;58.364;25.582;2024-01-30T02:56:13;101946.47;;;1.02;100.00
59767;BME280;46248;58.364;25.582;2024-01-30T02:59:36;101965.47;;;1.09;100.00
59767;BME280;46248;58.364;25.582;2024-01-30T03:02:59;101963.78;;;1.11;100.00
59767;BME280;46248;58.364;25.582;2024-01-30T03:06:23;101969.78;;;1.11;100.00
59767;BME280;46248;58.364;25.582;2024-01-30T03:09:46;101966.38;;;1.12;100.00
59767;BME280;46248;58.364;25.582;2024-01-30T03:13:11;101970.69;;;1.13;100.00
59767;BME280;46248;58.364;25.582;2024-01-30T03:16:34;101969.81;;;1.14;100.00
59767;BME280;46248;58.364;25.582;2024-01-30T03:19:57;101971.53;;;1.14;100.00
59767;BME280;46248;58.364;25.582;2024-01-30T03:23:20;101977.56;;;1.14;100.00
59767;BME280;46248;58.364;25.582;2024-01-30T03:26:43;101977.56;;;1.14;100.00
59767;BME280;46248;58.364;25.582;2024-01-30T03:30:08;101991.34;;;1.15;100.00
59767;BME280;46248;58.364;25.582;2024-01-30T03:33:31;101965.25;;;0.90;100.00
59767;BME280;46248;58.364;25.582;2024-01-30T03:36:54;101992.16;;;1.11;100.00
59767;BME280;46248;58.364;25.582;2024-01-30T03:40:18;101988.63;;;1.06;100.00
59767;BME280;46248;58.364;25.582;2024-01-30T03:43:41;101992.06;;;1.05;100.00
59767;BME280;46248;58.364;25.582;2024-01-30T03:47:05;101987.75;;;1.02;100.00
59767;BME280;46248;58.364;25.582;2024-01-30T03:50:28;101992.88;;;0.99;100.00
59767;BME280;46248;58.364;25.582;2024-01-30T03:53:50;101985.06;;;0.93;100.00
59767;BME280;46248;58.364;25.582;2024-01-30T03:57:13;101988.50;;;0.94;100.00
59767;BME280;46248;58.364;25.582;2024-01-30T04:00:36;101984.19;;;0.93;100.00
59767;BME280;46248;58.364;25.582;2024-01-30T04:04:01;101980.72;;;0.90;100.00
59767;BME280;46248;58.364;25.582;2024-01-30T04:07:24;101989.31;;;0.89;100.00
59767;BME280;46248;58.364;25.582;2024-01-30T04:10:47;101974.56;;;0.76;100.00
59767;BME280;46248;58.364;25.582;2024-01-30T04:14:11;101984.16;;;0.88;100.00
59767;BME280;46248;58.364;25.582;2024-01-30T04:17:34;101988.38;;;0.84;100.00
59767;BME280;46248;58.364;25.582;2024-01-30T04:20:58;101984.97;;;0.85;100.00
59767;BME280;46248;58.364;25.582;2024-01-30T04:24:21;101990.09;;;0.82;100.00
59767;BME280;46248;58.364;25.582;2024-01-30T04:27:44;101991.81;;;0.83;100.00
59767;BME280;46248;58.364;25.582;2024-01-30T04:31:07;101996.97;;;0.83;100.00
59767;BME280;46248;58.364;25.582;2024-01-30T04:34:30;101971.94;;;0.75;100.00
59767;BME280;46248;58.364;25.582;2024-01-30T04:37:54;101981.47;;;0.79;100.00
59767;BME280;46248;58.364;25.582;2024-01-30T04:41:17;101984.03;;;0.79;100.00
59767;BME280;46248;58.364;25.582;2024-01-30T04:44:40;101991.75;;;0.77;100.00
59767;BME280;46248;58.364;25.582;2024-01-30T04:48:03;101983.13;;;0.74;100.00
59767;BME280;46248;58.364;25.582;2024-01-30T04:51:26;101983.06;;;0.72;100.00
59767;BME280;46248;58.364;25.582;2024-01-30T04:54:50;101991.66;;;0.71;100.00
59767;BME280;46248;58.364;25.582;2024-01-30T04:58:14;101989.91;;;0.68;100.00
59767;BME280;46248;58.364;25.582;2024-01-30T05:01:37;101994.16;;;0.66;100.00
59767;BME280;46248;58.364;25.582;2024-01-30T05:05:00;101997.66;;;0.68;100.00
59767;BME280;46248;58.364;25.582;2024-01-30T05:08:23;102002.84;;;0.72;100.00
59767;BME280;46248;58.364;25.582;2024-01-30T05:11:48;101995.09;;;0.72;100.00
59767;BME280;46248;58.364;25.582;2024-01-30T05:15:10;101996.00;;;0.74;100.00
59767;BME280;46248;58.364;25.582;2024-01-30T05:18:34;101979.59;;;0.68;100.00
59767;BME280;46248;58.364;25.582;2024-01-30T05:21:57;101997.75;;;0.76;100.00
59767;BME280;46248;58.364;25.582;2024-01-30T05:25:20;101994.31;;;0.76;100.00
59767;BME280;46248;58.364;25.582;2024-01-30T05:28:45;101991.72;;;0.74;100.00
59767;BME280;46248;58.364;25.582;2024-01-30T05:32:09;102003.75;;;0.75;100.00
59767;BME280;46248;58.364;25.582;2024-01-30T05:35:32;101998.53;;;0.71;100.00
59767;BME280;46248;58.364;25.582;2024-01-30T05:38:56;102002.84;;;0.70;100.00
59767;BME280;46248;58.364;25.582;2024-01-30T05:42:19;102002.81;;;0.68;100.00
59767;BME280;46248;58.364;25.582;2024-01-30T05:45:43;102014.88;;;0.71;100.00
59767;BME280;46248;58.364;25.582;2024-01-30T05:49:06;102020.03;;;0.71;100.00
59767;BME280;46248;58.364;25.582;2024-01-30T05:52:29;102011.41;;;0.67;100.00
59767;BME280;46248;58.364;25.582;2024-01-30T05:55:52;102018.31;;;0.70;100.00
59767;BME280;46248;58.364;25.582;2024-01-30T05:59:15;102025.16;;;0.69;100.00
59767;BME280;46248;58.364;25.582;2024-01-30T06:02:39;102026.03;;;0.70;100.00
59767;BME280;46248;58.364;25.582;2024-01-30T06:06:02;102033.75;;;0.68;100.00
59767;BME280;46248;58.364;25.582;2024-01-30T06:09:25;102036.28;;;0.65;100.00
59767;BME280;46248;58.364;25.582;2024-01-30T06:12:48;102034.50;;;0.61;100.00
59767;BME280;46248;58.364;25.582;2024-01-30T06:16:11;102039.66;;;0.61;100.00
59767;BME280;46248;58.364;25.582;2024-01-30T06:19:35;102045.66;;;0.60;100.00
59767;BME280;46248;58.364;25.582;2024-01-30T06:22:58;102052.47;;;0.57;100.00
59767;BME280;46248;58.364;25.582;2024-01-30T06:26:21;102059.38;;;0.58;100.00
59767;BME280;46248;58.364;25.582;2024-01-30T06:29:44;102048.09;;;0.50;100.00
59767;BME280;46248;58.364;25.582;2024-01-30T06:33:07;102060.19;;;0.57;100.00
59767;BME280;46248;58.364;25.582;2024-01-30T06:36:32;102061.06;;;0.57;100.00
59767;BME280;46248;58.364;25.582;2024-01-30T06:39:55;102049.84;;;0.52;100.00
59767;BME280;46248;58.364;25.582;2024-01-30T06:43:18;102061.06;;;0.57;100.00
59767;BME280;46248;58.364;25.582;2024-01-30T06:46:41;102047.22;;;0.49;100.00
59767;BME280;46248;58.364;25.582;2024-01-30T06:50:05;102067.97;;;0.60;100.00
59767;BME280;46248;58.364;25.582;2024-01-30T06:53:29;102069.69;;;0.59;100.00
59767;BME280;46248;58.364;25.582;2024-01-30T06:56:52;102066.22;;;0.56;100.00
59767;BME280;46248;58.364;25.582;2024-01-30T07:00:16;102074.84;;;0.58;100.00
59767;BME280;46248;58.364;25.582;2024-01-30T07:03:40;102076.56;;;0.59;100.00
59767;BME280;46248;58.364;25.582;2024-01-30T07:07:03;102080.03;;;0.61;100.00
59767;BME280;46248;58.364;25.582;2024-01-30T07:10:28;102046.28;;;0.42;100.00
59767;BME280;46248;58.364;25.582;2024-01-30T07:13:53;102080.94;;;0.64;100.00
59767;BME280;46248;58.364;25.582;2024-01-30T07:17:16;102078.38;;;0.66;100.00
59767;BME280;46248;58.364;25.582;2024-01-30T07:20:39;102082.69;;;0.65;100.00
59767;BME280;46248;58.364;25.582;2024-01-30T07:24:07;102084.44;;;0.68;100.00
59767;BME280;46248;58.364;25.582;2024-01-30T07:27:31;102081.81;;;0.66;100.00
59767;BME280;46248;58.364;25.582;2024-01-30T07:30:54;102074.97;;;0.67;100.00
59767;BME280;46248;58.364;25.582;2024-01-30T07:34:17;102067.19;;;0.64;100.00
59767;BME280;46248;58.364;25.582;2024-01-30T07:37:40;102061.19;;;0.66;100.00
59767;BME280;46248;58.364;25.582;2024-01-30T07:41:03;102068.13;;;0.69;100.00
59767;BME280;46248;58.364;25.582;2024-01-30T07:44:28;102067.28;;;0.70;100.00
59767;BME280;46248;58.364;25.582;2024-01-30T07:47:51;102068.16;;;0.71;100.00
59767;BME280;46248;58.364;25.582;2024-01-30T07:51:14;102059.56;;;0.72;100.00
59767;BME280;46248;58.364;25.582;2024-01-30T07:54:36;102062.19;;;0.73;100.00
59767;BME280;46248;58.364;25.582;2024-01-30T07:58:00;102056.97;;;0.72;100.00
59767;BME280;46248;58.364;25.582;2024-01-30T08:01:24;102061.25;;;0.69;100.00
59767;BME280;46248;58.364;25.582;2024-01-30T08:04:46;102048.38;;;0.73;100.00
59767;BME280;46248;58.364;25.582;2024-01-30T08:08:10;102052.72;;;0.74;100.00
59767;BME280;46248;58.364;25.582;2024-01-30T08:11:33;102039.72;;;0.64;100.00
59767;BME280;46248;58.364;25.582;2024-01-30T08:14:56;102051.81;;;0.70;100.00
59767;BME280;46248;58.364;25.582;2024-01-30T08:18:20;102041.50;;;0.72;100.00
59767;BME280;46248;58.364;25.582;2024-01-30T08:21:43;102034.69;;;0.74;100.00
59767;BME280;46248;58.364;25.582;2024-01-30T08:25:06;102039.88;;;0.77;100.00
59767;BME280;46248;58.364;25.582;2024-01-30T08:28:31;102037.34;;;0.80;100.00
59767;BME280;46248;58.364;25.582;2024-01-30T08:31:54;102036.47;;;0.81;100.00
59767;BME280;46248;58.364;25.582;2024-01-30T08:35:18;102036.56;;;0.85;100.00
59767;BME280;46248;58.364;25.582;2024-01-30T08:38:42;102034.03;;;0.88;100.00
59767;BME280;46248;58.364;25.582;2024-01-30T08:42:05;102034.91;;;0.94;100.00
59767;BME280;46248;58.364;25.582;2024-01-30T08:45:29;102030.72;;;1.00;100.00
59767;BME280;46248;58.364;25.582;2024-01-30T08:48:51;102027.28;;;1.03;100.00
59767;BME280;46248;58.364;25.582;2024-01-30T08:52:16;102020.50;;;1.06;100.00
59767;BME280;46248;58.364;25.582;2024-01-30T08:55:39;102019.66;;;1.12;100.00
59767;BME280;46248;58.364;25.582;2024-01-30T08:59:01;102018.00;;;1.17;100.00
59767;BME280;46248;58.364;25.582;2024-01-30T09:02:24;102011.97;;;1.13;100.00
59767;BME280;46248;58.364;25.582;2024-01-30T09:05:46;102017.22;;;1.23;100.00
59767;BME280;46248;58.364;25.582;2024-01-30T09:09:11;102023.34;;;1.31;100.00
59767;BME280;46248;58.364;25.582;2024-01-30T09:12:34;102016.47;;;1.31;100.00
59767;BME280;46248;58.364;25.582;2024-01-30T09:15:57;102016.53;;;1.37;100.00
59767;BME280;46248;58.364;25.582;2024-01-30T09:19:19;102020.88;;;1.40;100.00
59767;BME280;46248;58.364;25.582;2024-01-30T09:22:42;102019.09;;;1.37;100.00
59767;BME280;46248;58.364;25.582;2024-01-30T09:26:06;102013.09;;;1.38;100.00
59767;BME280;46248;58.364;25.582;2024-01-30T09:29:30;102017.44;;;1.43;100.00
59767;BME280;46248;58.364;25.582;2024-01-30T09:32:55;102012.25;;;1.41;100.00
59767;BME280;46248;58.364;25.582;2024-01-30T09:36:17;102020.94;;;1.48;100.00
59767;BME280;46248;58.364;25.582;2024-01-30T09:39:40;102007.19;;;1.50;100.00
59767;BME280;46248;58.364;25.582;2024-01-30T09:43:06;102006.34;;;1.50;100.00
59767;BME280;46248;58.364;25.582;2024-01-30T09:46:30;101999.47;;;1.53;100.00
59767;BME280;46248;58.364;25.582;2024-01-30T09:49:55;101999.47;;;1.53;100.00
59767;BME280;46248;58.364;25.582;2024-01-30T09:53:20;102001.19;;;1.53;100.00
59767;BME280;46248;58.364;25.582;2024-01-30T09:56:44;101996.84;;;1.47;100.00
59767;BME280;46248;58.364;25.582;2024-01-30T10:00:10;102000.28;;;1.46;100.00
59767;BME280;46248;58.364;25.582;2024-01-30T10:03:33;101997.69;;;1.48;100.00
59767;BME280;46248;58.364;25.582;2024-01-30T10:06:56;101984.78;;;1.46;100.00
59767;BME280;46248;58.364;25.582;2024-01-30T10:10:21;101984.88;;;1.57;100.00
59767;BME280;46248;58.364;25.582;2024-01-30T10:13:44;101996.16;;;1.65;100.00
59767;BME280;46248;58.364;25.582;2024-01-30T10:17:09;101990.19;;;1.71;100.00
59767;BME280;46248;58.364;25.582;2024-01-30T10:20:44;101980.75;;;1.73;100.00
59767;BME280;46248;58.364;25.582;2024-01-30T10:24:07;101977.28;;;1.75;100.00
59767;BME280;46248;58.364;25.582;2024-01-30T10:27:30;101973.84;;;1.73;100.00
59767;BME280;46248;58.364;25.582;2024-01-30T10:30:57;101966.97;;;1.74;100.00
59767;BME280;46248;58.364;25.582;2024-01-30T10:34:27;101967.00;;;1.77;100.00
59767;BME280;46248;58.364;25.582;2024-01-30T10:37:50;101938.44;;;1.58;100.00
59767;BME280;46248;58.364;25.582;2024-01-30T10:41:15;101978.19;;;1.80;100.00
59767;BME280;46248;58.364;25.582;2024-01-30T10:44:47;101978.19;;;1.80;100.00
59767;BME280;46248;58.364;25.582;2024-01-30T10:48:11;101970.44;;;1.80;100.00
59767;BME280;46248;58.364;25.582;2024-01-30T10:51:38;101966.97;;;1.78;100.00
59767;BME280;46248;58.364;25.582;2024-01-30T10:55:04;101973.03;;;1.79;100.00
59767;BME280;46248;58.364;25.582;2024-01-30T10:58:28;101973.91;;;1.79;100.00
59767;BME280;46248;58.364;25.582;2024-01-30T11:01:51;101956.63;;;1.74;100.00
59767;BME280;46248;58.364;25.582;2024-01-30T11:05:14;101964.44;;;1.80;100.00
59767;BME280;46248;58.364;25.582;2024-01-30T11:09:00;101965.28;;;1.80;100.00
59767;BME280;46248;58.364;25.582;2024-01-30T11:12:25;101973.09;;;1.85;100.00
59767;BME280;46248;58.364;25.582;2024-01-30T11:15:49;101962.72;;;1.83;100.00
59767;BME280;46248;58.364;25.582;2024-01-30T11:19:12;101972.19;;;1.84;100.00
59767;BME280;46248;58.364;25.582;2024-01-30T11:22:36;101964.47;;;1.86;100.00
59767;BME280;46248;58.364;25.582;2024-01-30T11:26:00;101975.69;;;1.85;100.00
59767;BME280;46248;58.364;25.582;2024-01-30T11:29:24;101967.94;;;1.88;100.00
59767;BME280;46248;58.364;25.582;2024-01-30T11:32:58;101957.63;;;1.90;100.00
59767;BME280;46248;58.364;25.582;2024-01-30T11:36:25;101945.53;;;1.87;100.00
59767;BME280;46248;58.364;25.582;2024-01-30T11:39:49;101958.47;;;1.90;100.00
59767;BME280;46248;58.364;25.582;2024-01-30T11:43:14;101965.38;;;1.88;100.00
59767;BME280;46248;58.364;25.582;2024-01-30T11:46:38;101964.47;;;1.86;100.00
59767;BME280;46248;58.364;25.582;2024-01-30T11:50:01;101963.66;;;1.89;100.00
59767;BME280;46248;58.364;25.582;2024-01-30T11:53:25;101967.94;;;1.90;100.00
59767;BME280;46248;58.364;25.582;2024-01-30T11:56:48;101957.63;;;1.93;100.00
59767;BME280;46248;58.364;25.582;2024-01-30T12:00:17;101918.81;;;1.83;100.00
59767;BME280;46248;58.364;25.582;2024-01-30T12:03:42;101894.69;;;1.81;100.00
59767;BME280;46248;58.364;25.582;2024-01-30T12:07:05;101907.63;;;1.84;100.00
59767;BME280;46248;58.364;25.582;2024-01-30T12:10:28;101906.72;;;1.76;100.00
59767;BME280;46248;58.364;25.582;2024-01-30T12:13:51;101913.63;;;1.80;100.00
59767;BME280;46248;58.364;25.582;2024-01-30T12:17:26;101909.34;;;1.81;100.00
59767;BME280;46248;58.364;25.582;2024-01-30T12:20:57;101905.91;;;1.82;100.00
59767;BME280;46248;58.364;25.582;2024-01-30T12:24:22;101892.97;;;1.80;100.00
59767;BME280;46248;58.364;25.582;2024-01-30T12:27:46;101892.13;;;1.81;100.00
59767;BME280;46248;58.364;25.582;2024-01-30T12:31:11;101889.47;;;1.72;100.00
59767;BME280;46248;58.364;25.582;2024-01-30T12:34:40;101883.41;;;1.66;100.00
59767;BME280;46248;58.364;25.582;2024-01-30T12:38:17;101882.53;;;1.62;100.00
59767;BME280;46248;58.364;25.582;2024-01-30T12:41:40;101899.72;;;1.58;100.00
59767;BME280;46248;58.364;25.582;2024-01-30T12:45:04;101897.13;;;1.58;100.00
59767;BME280;46248;58.364;25.582;2024-01-30T12:48:28;101895.38;;;1.51;100.00
59767;BME280;46248;58.364;25.582;2024-01-30T12:51:53;101897.94;;;1.53;100.00
59767;BME280;46248;58.364;25.582;2024-01-30T12:55:18;101896.19;;;1.49;100.00
59767;BME280;46248;58.364;25.582;2024-01-30T12:58:41;101896.13;;;1.41;100.00
59767;BME280;46248;58.364;25.582;2024-01-30T13:02:07;101902.09;;;1.35;100.00
59767;BME280;46248;58.364;25.582;2024-01-30T13:05:30;101890.91;;;1.33;100.00
59767;BME280;46248;58.364;25.582;2024-01-30T13:08:55;101899.50;;;1.35;100.00
59767;BME280;46248;58.364;25.582;2024-01-30T13:12:18;101896.06;;;1.35;100.00
59767;BME280;46248;58.364;25.582;2024-01-30T13:15:41;101899.50;;;1.35;100.00
59767;BME280;46248;58.364;25.582;2024-01-30T13:19:04;101892.59;;;1.31;100.00
59767;BME280;46248;58.364;25.582;2024-01-30T13:22:27;101883.13;;;1.30;100.00
59767;BME280;46248;58.364;25.582;2024-01-30T13:25:52;101882.25;;;1.28;100.00
59767;BME280;46248;58.364;25.582;2024-01-30T13:29:19;101884.81;;;1.27;100.00
59767;BME280;46248;58.364;25.582;2024-01-30T13:32:41;101877.91;;;1.23;100.00
59767;BME280;46248;58.364;25.582;2024-01-30T13:36:06;101875.28;;;1.20;100.00
59767;BME280;46248;58.364;25.582;2024-01-30T13:39:29;101881.28;;;1.17;100.00
59767;BME280;46248;58.364;25.582;2024-01-30T13:43:00;101882.97;;;1.13;100.00
59767;BME280;46248;58.364;25.582;2024-01-30T13:46:23;101874.31;;;1.08;100.00
59767;BME280;46248;58.364;25.582;2024-01-30T13:49:46;101879.47;;;1.08;100.00
59767;BME280;46248;58.364;25.582;2024-01-30T13:53:09;101875.97;;;1.02;100.00
59767;BME280;46248;58.364;25.582;2024-01-30T13:56:34;101859.59;;;1.00;100.00
59767;BME280;46248;58.364;25.582;2024-01-30T13:59:59;101869.06;;;0.99;100.00
59767;BME280;46248;58.364;25.582;2024-01-30T14:03:21;101869.91;;;0.95;100.00
59767;BME280;46248;58.364;25.582;2024-01-30T14:06:44;101871.63;;;0.96;100.00
59767;BME280;46248;58.364;25.582;2024-01-30T14:10:20;101867.28;;;0.94;100.00
59767;BME280;46248;58.364;25.582;2024-01-30T14:13:43;101840.59;;;0.85;100.00
59767;BME280;46248;58.364;25.582;2024-01-30T14:17:07;101848.31;;;0.87;100.00
59767;BME280;46248;58.364;25.582;2024-01-30T14:20:30;101835.38;;;0.79;100.00
59767;BME280;46248;58.364;25.582;2024-01-30T14:23:53;101854.31;;;0.83;100.00
59767;BME280;46248;58.364;25.582;2024-01-30T14:27:16;101868.06;;;0.82;100.00
59767;BME280;46248;58.364;25.582;2024-01-30T14:30:39;101886.03;;;0.77;100.00
59767;BME280;46248;58.364;25.582;2024-01-30T14:34:03;101886.91;;;0.76;100.00
59767;BME280;46248;58.364;25.582;2024-01-30T14:37:26;101886.03;;;0.76;100.00
59767;BME280;46248;58.364;25.582;2024-01-30T14:40:51;101876.53;;;0.72;100.00
59767;BME280;46248;58.364;25.582;2024-01-30T14:44:13;101884.31;;;0.78;100.00
59767;BME280;46248;58.364;25.582;2024-01-30T14:47:36;101876.59;;;0.76;100.00
59767;BME280;46248;58.364;25.582;2024-01-30T14:51:01;101876.59;;;0.76;100.00
59767;BME280;46248;58.364;25.582;2024-01-30T14:54:24;101880.03;;;0.77;100.00
59767;BME280;46248;58.364;25.582;2024-01-30T14:57:47;101875.69;;;0.74;100.00
59767;BME280;46248;58.364;25.582;2024-01-30T15:01:10;101873.97;;;0.73;100.00
59767;BME280;46248;58.364;25.582;2024-01-30T15:04:34;101871.38;;;0.72;100.00
59767;BME280;46248;58.364;25.582;2024-01-30T15:07:58;101866.97;;;0.63;100.00
59767;BME280;46248;58.364;25.582;2024-01-30T15:11:21;101872.22;;;0.72;100.00
59767;BME280;46248;58.364;25.582;2024-01-30T15:14:44;101872.19;;;0.69;100.00
59767;BME280;46248;58.364;25.582;2024-01-30T15:18:11;101865.34;;;0.73;100.00
59767;BME280;46248;58.364;25.582;2024-01-30T15:21:34;101867.06;;;0.72;100.00
59767;BME280;46248;58.364;25.582;2024-01-30T15:24:59;101862.66;;;0.62;100.00
59767;BME280;46248;58.364;25.582;2024-01-30T15:28:33;101875.59;;;0.66;100.00
59767;BME280;46248;58.364;25.582;2024-01-30T15:31:57;101872.19;;;0.69;100.00
59767;BME280;46248;58.364;25.582;2024-01-30T15:35:20;101839.41;;;0.57;100.00
59767;BME280;46248;58.364;25.582;2024-01-30T15:38:43;101850.72;;;0.67;100.00
59767;BME280;46248;58.364;25.582;2024-01-30T15:42:08;101840.41;;;0.67;100.00
59767;BME280;46248;58.364;25.582;2024-01-30T15:45:30;101836.06;;;0.64;100.00
59767;BME280;46248;58.364;25.582;2024-01-30T15:48:53;101831.75;;;0.63;100.00
59767;BME280;46248;58.364;25.582;2024-01-30T15:52:16;101831.72;;;0.60;100.00
59767;BME280;46248;58.364;25.582;2024-01-30T15:55:38;101823.94;;;0.57;100.00
59767;BME280;46248;58.364;25.582;2024-01-30T15:59:03;101811.88;;;0.53;100.00
59767;BME280;46248;58.364;25.582;2024-01-30T16:02:26;101802.41;;;0.51;100.00
59767;BME280;46248;58.364;25.582;2024-01-30T16:05:50;101806.66;;;0.47;100.00
59767;BME280;46248;58.364;25.582;2024-01-30T16:09:13;101805.84;;;0.50;100.00
59767;BME280;46248;58.364;25.582;2024-01-30T16:12:37;101798.91;;;0.42;100.00
59767;BME280;46248;58.364;25.582;2024-01-30T16:16:04;101808.38;;;0.47;100.00
59767;BME280;46248;58.364;25.582;2024-01-30T16:19:27;101805.81;;;0.47;100.00
59767;BME280;46248;58.364;25.582;2024-01-30T16:22:51;101811.81;;;0.45;100.00
59767;BME280;46248;58.364;25.582;2024-01-30T16:26:16;101816.94;;;0.42;100.00
59767;BME280;46248;58.364;25.582;2024-01-30T16:29:40;101822.13;;;0.47;100.00
59767;BME280;46248;58.364;25.582;2024-01-30T16:33:05;101809.25;;;0.47;100.00
59767;BME280;46248;58.364;25.582;2024-01-30T16:36:27;101825.56;;;0.46;100.00
59767;BME280;46248;58.364;25.582;2024-01-30T16:39:50;101831.56;;;0.47;100.00
59767;BME280;46248;58.364;25.582;2024-01-30T16:43:13;101816.97;;;0.45;100.00
59767;BME280;46248;58.364;25.582;2024-01-30T16:46:36;101810.91;;;0.45;100.00
59767;BME280;46248;58.364;25.582;2024-01-30T16:50:03;101817.78;;;0.43;100.00
59767;BME280;46248;58.364;25.582;2024-01-30T16:53:26;101813.47;;;0.40;100.00
59767;BME280;46248;58.364;25.582;2024-01-30T16:56:50;101818.66;;;0.43;100.00
59767;BME280;46248;58.364;25.582;2024-01-30T17:00:13;101795.31;;;0.33;100.00
59767;BME280;46248;58.364;25.582;2024-01-30T17:03:36;101798.94;;;0.45;100.00
59767;BME280;46248;58.364;25.582;2024-01-30T17:07:04;101796.41;;;0.52;100.00
59767;BME280;46248;58.364;25.582;2024-01-30T17:10:27;101781.78;;;0.49;100.00
59767;BME280;46248;58.364;25.582;2024-01-30T17:13:52;101783.50;;;0.50;100.00
59767;BME280;46248;58.364;25.582;2024-01-30T17:17:15;101787.78;;;0.50;100.00
59767;BME280;46248;58.364;25.582;2024-01-30T17:20:38;101758.38;;;0.28;100.00
59767;BME280;46248;58.364;25.582;2024-01-30T17:24:03;101783.44;;;0.44;100.00
59767;BME280;46248;58.364;25.582;2024-01-30T17:27:25;101782.56;;;0.45;100.00
59767;BME280;46248;58.364;25.582;2024-01-30T17:30:49;101778.28;;;0.44;100.00
59767;BME280;46248;58.364;25.582;2024-01-30T17:34:12;101775.75;;;0.45;100.00